createdAt,value
2019-03-28T00:02:58.420Z,19.30
2019-03-28T00:09:01.151Z,19.20
2019-03-28T00:15:05.918Z,19.20
2019-03-28T00:21:08.912Z,19.10
2019-03-28T00:27:11.650Z,19.00
2019-03-28T00:33:14.380Z,19.00
2019-03-28T00:39:17.409Z,18.90
2019-03-28T00:45:20.134Z,18.80
2019-03-28T00:51:22.867Z,18.80
2019-03-28T00:57:25.599Z,18.70
2019-03-28T01:03:28.328Z,18.60
2019-03-28T01:09:31.401Z,18.60
2019-03-28T01:15:34.368Z,18.50
2019-03-28T01:21:37.135Z,18.40
2019-03-28T01:27:39.872Z,18.30
2019-03-28T01:33:43.152Z,18.30
2019-03-28T01:39:46.010Z,18.30
2019-03-28T01:45:48.995Z,18.20
2019-03-28T01:51:51.724Z,18.20
2019-03-28T01:57:54.456Z,18.10
2019-03-28T02:03:57.190Z,18.00
2019-03-28T02:09:59.917Z,18.00
2019-03-28T02:16:02.648Z,17.90
2019-03-28T02:22:05.733Z,17.90
2019-03-28T02:28:08.459Z,17.80
2019-03-28T02:34:11.184Z,17.80
2019-03-28T02:40:13.911Z,17.80
2019-03-28T02:46:16.823Z,17.70
2019-03-28T02:52:19.541Z,17.60
2019-03-28T02:58:22.273Z,17.60
2019-03-28T03:04:25.002Z,17.60
2019-03-28T03:10:27.733Z,17.50
2019-03-28T03:16:30.460Z,17.50
2019-03-28T03:22:33.201Z,17.50
2019-03-28T03:28:36.033Z,17.40
2019-03-28T03:34:38.854Z,17.30
2019-03-28T03:40:41.710Z,17.30
2019-03-28T03:46:44.512Z,17.30
2019-03-28T03:52:47.241Z,17.20
2019-03-28T03:58:49.964Z,17.20
2019-03-28T04:04:56.355Z,17.10
2019-03-28T04:10:57.242Z,17.10
2019-03-28T04:17:00.045Z,17.10
2019-03-28T04:23:03.866Z,17.10
2019-03-28T04:29:06.983Z,17.10
2019-03-28T04:35:09.708Z,17.10
2019-03-28T04:41:12.434Z,17.10
2019-03-28T04:47:15.161Z,17.00
2019-03-28T04:53:17.883Z,17.10
2019-03-28T04:59:20.618Z,17.10
2019-03-28T05:05:23.657Z,17.10
2019-03-28T05:11:26.379Z,17.20
2019-03-28T05:17:29.099Z,17.20
2019-03-28T05:23:32.132Z,17.20
2019-03-28T05:29:34.851Z,17.30
2019-03-28T05:35:37.644Z,17.30
2019-03-28T05:41:40.372Z,17.40
2019-03-28T05:47:43.097Z,17.40
2019-03-28T05:53:46.520Z,17.40
2019-03-28T05:59:49.430Z,17.50
2019-03-28T06:05:52.280Z,17.50
2019-03-28T06:11:55.156Z,17.60
2019-03-28T06:17:57.894Z,17.60
2019-03-28T06:24:00.613Z,17.60
2019-03-28T06:30:05.280Z,17.70
2019-03-28T06:36:08.013Z,17.70
2019-03-28T06:42:10.751Z,17.80
2019-03-28T06:48:13.476Z,17.80
2019-03-28T06:54:16.199Z,17.90
2019-03-28T07:00:18.945Z,17.90
2019-03-28T07:06:22.047Z,18.00
2019-03-28T07:12:24.771Z,18.00
2019-03-28T07:18:27.490Z,18.00
2019-03-28T07:24:30.559Z,18.00
2019-03-28T07:30:33.291Z,18.10
2019-03-28T07:36:36.008Z,18.10
2019-03-28T07:42:39.084Z,18.20
2019-03-28T07:48:41.815Z,18.20
2019-03-28T07:54:44.840Z,18.20
2019-03-28T08:00:47.573Z,18.30
2019-03-28T08:06:51.198Z,18.30
2019-03-28T08:12:54.875Z,18.40
2019-03-28T08:18:57.901Z,18.50
2019-03-28T08:25:00.638Z,18.60
2019-03-28T08:31:03.613Z,18.70
2019-03-28T08:37:06.732Z,18.80
2019-03-28T08:43:09.461Z,19.00
2019-03-28T08:49:12.187Z,19.10
2019-03-28T08:55:14.920Z,19.20
2019-03-28T09:01:17.668Z,19.30
2019-03-28T09:07:20.495Z,19.40
2019-03-28T09:13:23.585Z,19.40
2019-03-28T09:19:26.329Z,19.50
2019-03-28T09:25:29.136Z,19.50
2019-03-28T09:31:31.888Z,19.50
2019-03-28T09:37:34.627Z,19.50
2019-03-28T09:43:37.699Z,19.50
2019-03-28T09:49:40.720Z,19.40
2019-03-28T09:55:43.479Z,19.50
2019-03-28T10:05:07.624Z,19.50
2019-03-28T10:11:10.343Z,19.50
2019-03-28T10:17:13.072Z,19.50
2019-03-28T10:23:15.796Z,19.70
2019-03-28T10:29:18.768Z,19.80
2019-03-28T10:35:27.368Z,19.90
2019-03-28T10:41:30.096Z,20.00
2019-03-28T10:47:32.826Z,20.10
2019-03-28T10:53:35.561Z,20.10
2019-03-28T10:59:38.292Z,20.10
2019-03-28T11:05:41.044Z,20.20
2019-03-28T11:11:43.793Z,20.20
2019-03-28T11:17:47.548Z,20.20
2019-03-28T11:23:50.415Z,20.20
2019-03-28T11:29:53.169Z,20.10
2019-03-28T11:35:55.939Z,20.10
2019-03-28T11:42:00.534Z,20.00
2019-03-28T11:48:03.136Z,19.70
2019-03-28T11:54:06.158Z,19.60
2019-03-28T12:00:12.702Z,19.50
2019-03-28T12:06:15.437Z,19.40
2019-03-28T12:12:18.180Z,19.30
2019-03-28T12:18:20.918Z,19.30
2019-03-28T12:24:23.651Z,19.20
2019-03-28T12:30:26.408Z,19.10
2019-03-28T12:36:29.483Z,19.10
2019-03-28T12:42:32.232Z,19.00
2019-03-28T12:48:34.980Z,18.90
2019-03-28T12:54:37.708Z,18.90
2019-03-28T13:00:40.450Z,18.90
2019-03-28T13:06:43.175Z,19.00
2019-03-28T13:12:45.916Z,19.20
2019-03-28T13:18:48.637Z,19.30
2019-03-28T13:24:51.376Z,19.60
2019-03-28T13:30:54.175Z,19.80
2019-03-28T13:36:57.012Z,19.90
2019-03-28T13:42:59.755Z,20.00
2019-03-28T13:49:02.504Z,20.20
2019-03-28T13:55:08.066Z,20.20
2019-03-28T14:01:10.793Z,20.30
2019-03-28T14:07:15.768Z,20.40
2019-03-28T14:13:18.011Z,20.40
2019-03-28T14:19:20.846Z,20.40
2019-03-28T14:25:23.580Z,20.40
2019-03-28T14:31:26.317Z,20.40
2019-03-28T14:37:29.036Z,20.40
2019-03-28T14:43:31.764Z,20.50
2019-03-28T14:49:34.673Z,20.50
2019-03-28T14:55:37.471Z,20.60
2019-03-28T15:01:40.211Z,20.60
2019-03-28T15:07:42.952Z,20.60
2019-03-28T15:13:45.692Z,20.60
2019-03-28T15:19:48.429Z,20.70
2019-03-28T15:25:51.164Z,20.60
2019-03-28T15:31:53.892Z,20.70
2019-03-28T15:37:56.720Z,20.80
2019-03-28T15:43:59.459Z,20.80
2019-03-28T15:50:02.187Z,20.80
2019-03-28T15:56:04.921Z,20.70
2019-03-28T16:02:07.650Z,20.70
2019-03-28T16:08:10.376Z,20.60
2019-03-28T16:14:13.108Z,20.60
2019-03-28T16:20:15.841Z,20.60
2019-03-28T16:26:18.665Z,20.60
2019-03-28T16:32:21.414Z,20.60
2019-03-28T16:38:24.148Z,20.60
2019-03-28T16:44:26.878Z,20.70
2019-03-28T16:50:29.615Z,20.60
2019-03-28T16:56:32.344Z,20.60
2019-03-28T17:02:35.317Z,20.60
2019-03-28T17:08:38.320Z,20.60
2019-03-28T17:14:41.050Z,20.50
2019-03-28T17:20:43.780Z,20.40
2019-03-28T17:26:46.513Z,20.40
2019-03-28T17:32:49.255Z,20.40
2019-03-28T17:38:51.980Z,20.30
2019-03-28T17:44:54.968Z,20.30
2019-03-28T17:50:57.700Z,20.30
2019-03-28T17:57:00.431Z,20.20
2019-03-28T18:03:08.957Z,20.10
2019-03-28T18:09:08.001Z,20.10
2019-03-28T18:15:10.755Z,20.00
2019-03-28T18:21:13.545Z,19.80
2019-03-28T18:27:16.305Z,19.70
2019-03-28T18:33:19.865Z,19.60
2019-03-28T18:39:22.580Z,19.60
2019-03-28T18:45:25.317Z,19.60
2019-03-28T18:51:28.061Z,19.60
2019-03-28T18:57:30.801Z,19.60
2019-03-28T19:03:33.882Z,19.60
2019-03-28T19:09:36.619Z,19.60
2019-03-28T19:15:39.365Z,19.70
2019-03-28T19:21:42.481Z,19.80
2019-03-28T19:27:45.225Z,19.80
2019-03-28T19:33:47.978Z,19.80
2019-03-28T19:39:50.776Z,19.70
2019-03-28T19:45:53.527Z,19.70
2019-03-28T19:51:56.272Z,19.60
2019-03-28T19:57:59.023Z,19.60
2019-03-28T20:04:01.792Z,19.60
2019-03-28T20:10:15.796Z,19.50
2019-03-28T20:16:09.993Z,19.40
2019-03-28T20:22:12.737Z,19.30
2019-03-28T20:28:16.278Z,19.30
2019-03-28T20:34:19.303Z,19.20
2019-03-28T20:40:22.138Z,19.10
2019-03-28T20:46:24.877Z,19.00
2019-03-28T20:52:27.611Z,18.90
2019-03-28T20:58:30.357Z,18.90
2019-03-28T21:04:34.092Z,18.80
2019-03-28T21:10:37.269Z,18.80
2019-03-28T21:16:40.010Z,18.70
2019-03-28T21:22:42.744Z,18.60
2019-03-28T21:28:47.339Z,18.60
2019-03-28T21:34:49.948Z,18.60
2019-03-28T21:41:12.113Z,18.50
2019-03-28T21:47:14.896Z,18.50
2019-03-28T21:53:19.961Z,18.40
2019-03-28T21:59:22.289Z,18.30
2019-03-28T22:05:28.611Z,18.30
2019-03-28T22:11:30.491Z,18.20
2019-03-28T22:17:33.493Z,18.20
2019-03-28T22:23:36.226Z,18.10
2019-03-28T22:29:38.955Z,18.10
2019-03-28T22:35:41.675Z,18.00
2019-03-28T22:41:44.410Z,18.00
2019-03-28T22:47:47.140Z,17.90
2019-03-28T22:53:49.872Z,17.90
2019-03-28T22:59:52.922Z,17.80
2019-03-28T23:05:56.753Z,17.80
2019-03-28T23:11:59.624Z,17.70
2019-03-28T23:18:02.349Z,17.70
2019-03-28T23:24:10.990Z,17.70
2019-03-28T23:30:13.772Z,17.60
2019-03-28T23:36:16.496Z,17.60
2019-03-28T23:42:19.228Z,17.60
2019-03-28T23:48:22.265Z,17.50
2019-03-28T23:54:25.006Z,17.50
